Ciclone tropical SAM 2001: trajetória, intensidade e histórico
14/12/2000, 00:00:00
28/11/2000, 00:00:00 – 14/12/2000, 00:00:00
Trajetória histórica
Acompanhe a evolução e o deslocamento de Ciclone tropical SAM em 2001, com a trajetória completa registrada, ventos máximos sustentados de 110 nós, pressão central mínima e cronologia detalhada.
| Data | Hora | Tipo | Ventokm/h | PressãohPa |
|---|---|---|---|---|
| 14/12 | 00:00 | TDDepressão tropical | 55 | 998 |
| 13/12 | 21:00 | TDDepressão tropical | 55 | 997 |
| 13/12 | 18:00 | TDDepressão tropical | 55 | 996 |
| 13/12 | 15:00 | TDDepressão tropical | 55 | 995 |
| 13/12 | 12:00 | TDDepressão tropical | 55 | 994 |
| 13/12 | 09:00 | TDDepressão tropical | 55 | 993 |
| 13/12 | 06:00 | TDDepressão tropical | 55 | 992 |
| 13/12 | 03:00 | TDDepressão tropical | 55 | 991 |
| 13/12 | 00:00 | TDDepressão tropical | 55 | 990 |
| 12/12 | 21:00 | TDDepressão tropical | 55 | 990 |
| 12/12 | 18:00 | TDDepressão tropical | 55 | 989 |
| 12/12 | 15:00 | TDDepressão tropical | 55 | 988 |
| 12/12 | 12:00 | TDDepressão tropical | 55 | 987 |
| 12/12 | 09:00 | TDDepressão tropical | 55 | 989 |
| 12/12 | 06:00 | TDDepressão tropical | 55 | 990 |
| 12/12 | 03:00 | TDDepressão tropical | 55 | 991 |
| 12/12 | 00:00 | TDDepressão tropical | 55 | 992 |
| 11/12 | 21:00 | TDDepressão tropical | 55 | 993 |
| 11/12 | 18:00 | TDDepressão tropical | 55 | 994 |
| 11/12 | 15:00 | TDDepressão tropical | 55 | 995 |
| 11/12 | 12:00 | TDDepressão tropical | 55 | 995 |
| 11/12 | 09:00 | TDDepressão tropical | 55 | 996 |
| 11/12 | 06:00 | TDDepressão tropical | 55 | 996 |
| 11/12 | 03:00 | TDDepressão tropical | 55 | 994 |
| 11/12 | 00:00 | TDDepressão tropical | 55 | 992 |
| 10/12 | 21:00 | TDDepressão tropical | 55 | 991 |
| 10/12 | 18:00 | TDDepressão tropical | 45 | 990 |
| 10/12 | 15:00 | TDDepressão tropical | 50 | 990 |
| 10/12 | 12:00 | TDDepressão tropical | 55 | 990 |
| 10/12 | 10:00 | TDDepressão tropical | 60 | 990 |
| 10/12 | 09:00 | TSTempestade tropical | 65 | 989 |
| 10/12 | 06:00 | TDDepressão tropical | 75 | 986 |
| 10/12 | 04:00 | C1Ciclone tropical de categoria 1 | 80 | 985 |
| 10/12 | 03:00 | TSTempestade tropical | 80 | 985 |
| 10/12 | 00:00 | C1Ciclone tropical de categoria 1 | 85 | 985 |
| 09/12 | 22:00 | C1Ciclone tropical de categoria 1 | 85 | 985 |
| 09/12 | 21:00 | TSTempestade tropical | 90 | 984 |
| 09/12 | 18:00 | C1Ciclone tropical de categoria 1 | 95 | 981 |
| 09/12 | 16:00 | C1Ciclone tropical de categoria 1 | 95 | 980 |
| 09/12 | 15:00 | TSTempestade tropical | 100 | 980 |
| 09/12 | 13:00 | C1Ciclone tropical de categoria 1 | 100 | 980 |
| 09/12 | 12:00 | C1Ciclone tropical de categoria 1 | 100 | 978 |
| 09/12 | 10:00 | C1Ciclone tropical de categoria 1 | 110 | 975 |
| 09/12 | 09:00 | TCCiclone tropical | 115 | 973 |
| 09/12 | 07:00 | C1Ciclone tropical de categoria 1 | 125 | 970 |
| 09/12 | 06:00 | C1Ciclone tropical de categoria 1 | 130 | 968 |
| 09/12 | 04:00 | C2Ciclone tropical de categoria 2 | 135 | 965 |
| 09/12 | 03:00 | TCCiclone tropical | 140 | 963 |
| 09/12 | 01:00 | C2Ciclone tropical de categoria 2 | 145 | 960 |
| 09/12 | 00:00 | C2Ciclone tropical de categoria 2 | 150 | 958 |
| 08/12 | 22:00 | C2Ciclone tropical de categoria 2 | 155 | 955 |
| 08/12 | 21:00 | TCCiclone tropical | 165 | 953 |
| 08/12 | 19:00 | C2Ciclone tropical de categoria 2 | 170 | 950 |
| 08/12 | 18:00 | C2Ciclone tropical de categoria 2 | 175 | 946 |
| 08/12 | 16:00 | C2Ciclone tropical de categoria 2 | 180 | 940 |
| 08/12 | 15:00 | TCCiclone tropical | 185 | 938 |
| 08/12 | 13:00 | C2Ciclone tropical de categoria 2 | 190 | 935 |
| 08/12 | 12:00 | C2Ciclone tropical de categoria 2 | 195 | 936 |
| 08/12 | 10:00 | C2Ciclone tropical de categoria 2 | 200 | 940 |
| 08/12 | 09:00 | TCCiclone tropical | 200 | 942 |
| 08/12 | 07:00 | C2Ciclone tropical de categoria 2 | 200 | 945 |
| 08/12 | 06:00 | C2Ciclone tropical de categoria 2 | 205 | 946 |
| 08/12 | 04:00 | C2Ciclone tropical de categoria 2 | 205 | 950 |
| 08/12 | 03:00 | TCCiclone tropical | 205 | 950 |
| 08/12 | 01:00 | C2Ciclone tropical de categoria 2 | 205 | 950 |
| 08/12 | 00:00 | C2Ciclone tropical de categoria 2 | 205 | 950 |
| 07/12 | 22:00 | C2Ciclone tropical de categoria 2 | 205 | 950 |
| 07/12 | 21:00 | TCCiclone tropical | 205 | 950 |
| 07/12 | 19:00 | C2Ciclone tropical de categoria 2 | 205 | 950 |
| 07/12 | 18:00 | C2Ciclone tropical de categoria 2 | 205 | 951 |
| 07/12 | 16:00 | C2Ciclone tropical de categoria 2 | 190 | 955 |
| 07/12 | 15:00 | TCCiclone tropical | 180 | 957 |
| 07/12 | 13:00 | C2Ciclone tropical de categoria 2 | 165 | 960 |
| 07/12 | 12:00 | C2Ciclone tropical de categoria 2 | 155 | 961 |
| 07/12 | 10:00 | C2Ciclone tropical de categoria 2 | 150 | 965 |
| 07/12 | 09:00 | TCCiclone tropical | 150 | 967 |
| 07/12 | 07:00 | C2Ciclone tropical de categoria 2 | 145 | 970 |
| 07/12 | 06:00 | C2Ciclone tropical de categoria 2 | 140 | 970 |
| 07/12 | 04:00 | C2Ciclone tropical de categoria 2 | 135 | 970 |
| 07/12 | 03:00 | TCCiclone tropical | 130 | 970 |
| 07/12 | 01:00 | C2Ciclone tropical de categoria 2 | 125 | 970 |
| 07/12 | 00:00 | C2Ciclone tropical de categoria 2 | 120 | 970 |
| 06/12 | 22:00 | C2Ciclone tropical de categoria 2 | 115 | 970 |
| 06/12 | 21:00 | TSTempestade tropical | 110 | 972 |
| 06/12 | 19:00 | C1Ciclone tropical de categoria 1 | 105 | 975 |
| 06/12 | 18:00 | C1Ciclone tropical de categoria 1 | 100 | 975 |
| 06/12 | 16:00 | C1Ciclone tropical de categoria 1 | 100 | 975 |
| 06/12 | 15:00 | TSTempestade tropical | 100 | 975 |
| 06/12 | 12:00 | C1Ciclone tropical de categoria 1 | 95 | 975 |
| 06/12 | 10:00 | C1Ciclone tropical de categoria 1 | 90 | 975 |
| 06/12 | 09:00 | TSTempestade tropical | 90 | 975 |
| 06/12 | 06:00 | C1Ciclone tropical de categoria 1 | 85 | 975 |
| 06/12 | 04:00 | C1Ciclone tropical de categoria 1 | 85 | 975 |
| 06/12 | 03:00 | TSTempestade tropical | 85 | 976 |
| 06/12 | 00:00 | C1Ciclone tropical de categoria 1 | 85 | 978 |
| 05/12 | 22:00 | C1Ciclone tropical de categoria 1 | 80 | 980 |
| 05/12 | 21:00 | TSTempestade tropical | 75 | 980 |
| 05/12 | 18:00 | C1Ciclone tropical de categoria 1 | 65 | 980 |
| 05/12 | 16:00 | C1Ciclone tropical de categoria 1 | 65 | 980 |
| 05/12 | 15:00 | TSTempestade tropical | 65 | 981 |
| 05/12 | 12:00 | C1Ciclone tropical de categoria 1 | 65 | 983 |
| 05/12 | 10:00 | C1Ciclone tropical de categoria 1 | 60 | 985 |
| 05/12 | 09:00 | TDDepressão tropical | 60 | 986 |
| 05/12 | 06:00 | C1Ciclone tropical de categoria 1 | 55 | 988 |
| 05/12 | 04:00 | C1Ciclone tropical de categoria 1 | 55 | 990 |
| 05/12 | 03:00 | TDDepressão tropical | 55 | 991 |
| 05/12 | 00:00 | C1Ciclone tropical de categoria 1 | 55 | 992 |
| 04/12 | 21:00 | TDDepressão tropical | 55 | 993 |
| 04/12 | 18:00 | C1Ciclone tropical de categoria 1 | 55 | 994 |
| 04/12 | 15:00 | TDDepressão tropical | 55 | 994 |
| 04/12 | 12:00 | C1Ciclone tropical de categoria 1 | 55 | 994 |
| 04/12 | 09:00 | TDDepressão tropical | 55 | 995 |
| 04/12 | 06:00 | TDDepressão tropical | 55 | 996 |
| 04/12 | 03:00 | TDDepressão tropical | 55 | 997 |
| 04/12 | 00:00 | TDDepressão tropical | 55 | 998 |
| 03/12 | 21:00 | TDDepressão tropical | 55 | 998 |
| 03/12 | 18:00 | TDDepressão tropical | 55 | 997 |
| 03/12 | 15:00 | TDDepressão tropical | 50 | 997 |
| 03/12 | 12:00 | TDDepressão tropical | 45 | 997 |
| 03/12 | 09:00 | TDDepressão tropical | 45 | 997 |
| 03/12 | 06:00 | TDDepressão tropical | 45 | 997 |
| 03/12 | 03:00 | TDDepressão tropical | 45 | 999 |
| 03/12 | 00:00 | TDDepressão tropical | 45 | 1000 |
| 02/12 | 21:00 | TDDepressão tropical | 45 | 999 |
| 02/12 | 18:00 | TDDepressão tropical | 45 | 998 |
| 02/12 | 15:00 | TDDepressão tropical | 45 | 999 |
| 02/12 | 12:00 | TDDepressão tropical | 45 | 1000 |
| 02/12 | 09:00 | TDDepressão tropical | 45 | 1000 |
| 02/12 | 06:00 | TDDepressão tropical | 45 | 999 |
| 02/12 | 03:00 | TDDepressão tropical | 45 | 1000 |
| 02/12 | 00:00 | TDDepressão tropical | 45 | 1001 |
| 01/12 | 21:00 | TDDepressão tropical | 45 | 1001 |
| 01/12 | 18:00 | TDDepressão tropical | 45 | 1000 |
| 01/12 | 15:00 | TDDepressão tropical | 45 | 1001 |
| 01/12 | 12:00 | TDDepressão tropical | 45 | 1001 |
| 01/12 | 09:00 | TDDepressão tropical | 45 | 1001 |
| 01/12 | 06:00 | TDDepressão tropical | 45 | 1001 |
| 01/12 | 03:00 | TDDepressão tropical | 45 | 1002 |
| 01/12 | 00:00 | TDDepressão tropical | 45 | 1003 |
| 30/11 | 21:00 | TDDepressão tropical | 45 | 1002 |
| 30/11 | 18:00 | TDDepressão tropical | 45 | 1001 |
| 30/11 | 15:00 | TDDepressão tropical | 45 | 1002 |
| 30/11 | 12:00 | TDDepressão tropical | 45 | 1002 |
| 30/11 | 09:00 | TDDepressão tropical | 45 | 1002 |
| 30/11 | 06:00 | TDDepressão tropical | 45 | 1001 |
| 30/11 | 03:00 | TDDepressão tropical | 45 | 1002 |
| 30/11 | 00:00 | TDDepressão tropical | 45 | 1003 |
| 29/11 | 21:00 | TDDepressão tropical | 45 | 1002 |
| 29/11 | 18:00 | TDDepressão tropical | 45 | 1001 |
| 29/11 | 15:00 | TDDepressão tropical | 45 | 1002 |
| 29/11 | 12:00 | TDDepressão tropical | 45 | 1003 |
| 29/11 | 09:00 | TDDepressão tropical | 45 | 1002 |
| 29/11 | 06:00 | TDDepressão tropical | 45 | 1001 |
| 29/11 | 03:00 | TDDepressão tropical | 45 | 1002 |
| 29/11 | 00:00 | TDDepressão tropical | 45 | 1003 |
| 28/11 | 21:00 | TDDepressão tropical | 45 | 1003 |
| 28/11 | 18:00 | TDDepressão tropical | 45 | 1002 |
| 28/11 | 15:00 | TDDepressão tropical | 45 | 1003 |
| 28/11 | 12:00 | TDDepressão tropical | 45 | 1003 |
| 28/11 | 09:00 | TDDepressão tropical | 45 | 1002 |
| 28/11 | 06:00 | TDDepressão tropical | 45 | 1001 |
| 28/11 | 03:00 | TDDepressão tropical | 45 | 1003 |
| 28/11 | 00:00 | TDDepressão tropical | 35 | 1005 |
Cronologia de localização
163 Registos de localizaçãoDesastres naturais próximos
Detalhes do evento
Ligações das fontes
Também pode encontrar estas ferramentas úteis
A localização, a extensão e o estado de cada evento podem ser atualizados em momentos diferentes consoante a fonte. Confirme decisões importantes junto das autoridades oficiais de emergência.
Os registos de eventos provêm da NASA EONET e são complementados por registos de deslizamentos de terra do USGS FDSN. As análises e previsões de tempestades podem utilizar a NOAA NHC ou o JTWC, com registos históricos ATCF da UCAR/NCAR quando disponíveis. As imagens de satélite provêm da NASA Worldview/GIBS (GOES e Himawari) ou da EUMETSAT Meteosat, consoante a cobertura do mapa.
Fontes: NASA EONET · USGS · NOAA NHC · JTWC · UCAR/NCAR ATCF · NASA Worldview/GIBS · EUMETSAT Meteosat · OpenStreetMap contributors